Eutawville, SC (29048)

4:26 AM EDT on June 03, 2015 (GMT -0400)
Dingle Pond | | Change Station
CLOSE
Current Station
Personal Weather Station
Location: Summerton, SC
Elevation: 95 ft
Nearby Weather Stations

Elev 95 ft 33.51 °N, 80.41 °W | Updated 11 seconds ago

Mostly Cloudy
Mostly Cloudy
66.6 °F
Feels Like 66.6 °F
N
0.0
Wind Variable Wind from SW
Gusts 1.6 mph

Today
High -- | Low -- °F
--% Chance of Precip.
Yesterday
High -- | Low -- °F
Precip. -- in
6:12 AM 8:27 PM
Waxing Gibbous, 99% visible
Pressure 29.95 in
Visibility 10.0 miles
Clouds Mostly Cloudy 9000 ft
Mostly Cloudy 12000 ft
Dew Point 65 °F
Humidity 95%
Rainfall 0.07 in
Snow Depth Not available.
UV 0 out of 12
Pollen 4.10 out of 12
Air Quality Not available.
Flu Activity Local Activity
METAR KMNI 030815Z AUTO 00000KT 10SM BKN090 BKN120 18/17 A2995 RMK AO2 LTG DSNT E AND SE

More Conditions Fewer Conditions

Pressure 29.95 in
Visibility 10.0 miles
Clouds Mostly Cloudy 9000 ft
Mostly Cloudy 12000 ft
Dew Point 65 °F
Humidity 95%
Rainfall 0.07 in
Snow Depth Not available.
UV 0 out of 12
Pollen 4.10 out of 12
Air Quality Not available.
Flu Activity Local Activity
METAR KMNI 030815Z AUTO 00000KT 10SM BKN090 BKN120 18/17 A2995 RMK AO2 LTG DSNT E AND SE

More Conditions Fewer Conditions

10-Day Weather Forecast

×

Almanac

Astronomy

Jun. 03, 2015 Rise Set
Actual Time
Civil Twilight
Nautical Twilight
Astronomical Twilight
Moon
Length of Visible Light
Length of Day
Tomorrow will be .
, % of the Moon is Illuminated

Today's Extremes

State Highs State Lows

Community

WunderPhotos

Upload Photos

1,826,194 photos uploaded!

WunderBlogs® & News

Nearby

Air Quality

  Air Quality AQ Index Pollutant
Not available.

Snow Depth

Station Depth Elevation

Earthquake Activity

City Distance Mag. Time & Date
Minimum magnitude displayed is 2.5.

Coastal Water Temperatures

Place Temperature

Stations

Nearby Weather Stations

Station Location Temp. Windchill Dew Point Humidity Wind Precip. Elev Updated Type